createdAt,value
2019-03-02T00:01:37.301Z,28.03
2019-03-02T00:04:16.863Z,29.80
2019-03-02T00:07:08.032Z,33.43
2019-03-02T00:09:55.283Z,32.33
2019-03-02T00:12:43.738Z,31.87
2019-03-02T00:15:32.251Z,31.00
2019-03-02T00:18:20.712Z,35.07
2019-03-02T00:21:08.935Z,32.53
2019-03-02T00:23:57.163Z,30.73
2019-03-02T00:26:38.207Z,28.40
2019-03-02T00:29:18.826Z,29.10
2019-03-02T00:31:59.663Z,28.63
2019-03-02T00:34:40.700Z,38.07
2019-03-02T00:37:21.693Z,29.13
2019-03-02T00:40:02.119Z,32.53
2019-03-02T00:42:31.250Z,31.13
2019-03-02T00:45:19.746Z,28.73
2019-03-02T00:48:11.176Z,32.70
2019-03-02T00:50:57.908Z,35.20
2019-03-02T00:53:46.383Z,32.40
2019-03-02T00:56:35.479Z,32.00
2019-03-02T00:59:23.715Z,36.63
2019-03-02T01:02:12.219Z,33.20
2019-03-02T01:05:01.823Z,31.97
2019-03-02T01:07:42.900Z,32.63
2019-03-02T01:10:24.140Z,32.40
2019-03-02T01:13:04.671Z,30.40
2019-03-02T01:15:46.071Z,31.77
2019-03-02T01:18:27.089Z,35.13
2019-03-02T01:20:56.235Z,30.93
2019-03-02T01:23:44.435Z,33.53
2019-03-02T01:26:32.705Z,35.73
2019-03-02T01:29:21.221Z,41.40
2019-03-02T01:32:12.658Z,37.37
2019-03-02T01:34:59.390Z,37.20
2019-03-02T01:37:47.601Z,30.13
2019-03-02T01:40:37.865Z,34.13
2019-03-02T01:43:25.759Z,35.47
2019-03-02T01:46:14.236Z,34.77
2019-03-02T01:49:02.474Z,39.30
2019-03-02T01:51:50.763Z,34.03
2019-03-02T01:54:38.976Z,33.27
2019-03-02T01:57:27.188Z,34.40
2019-03-02T02:03:13.018Z,34.77
2019-03-02T02:06:03.739Z,32.40
2019-03-02T02:08:45.539Z,29.20
2019-03-02T02:11:18.080Z,37.90
2019-03-02T02:14:04.715Z,37.63
2019-03-02T02:16:52.964Z,32.90
2019-03-02T02:19:41.174Z,32.23
2019-03-02T02:22:29.402Z,34.53
2019-03-02T02:25:17.874Z,29.30
2019-03-02T02:28:06.080Z,38.97
2019-03-02T02:30:54.312Z,33.73
2019-03-02T02:33:44.512Z,31.13
2019-03-02T02:36:32.803Z,26.90
2019-03-02T02:39:21.019Z,32.13
2019-03-02T02:42:09.275Z,31.57
2019-03-02T02:44:50.391Z,29.20
2019-03-02T02:47:31.040Z,26.70
2019-03-02T02:50:11.993Z,28.17
2019-03-02T02:52:53.322Z,29.33
2019-03-02T02:55:36.069Z,29.53
2019-03-02T02:58:17.591Z,28.70
2019-03-02T03:00:59.732Z,26.47
2019-03-02T03:03:40.679Z,31.40
2019-03-02T03:06:21.372Z,22.30
2019-03-02T03:09:05.198Z,21.10
2019-03-02T03:11:45.740Z,23.23
2019-03-02T03:14:25.774Z,23.80
2019-03-02T03:17:14.366Z,24.37
2019-03-02T03:19:43.510Z,25.83
2019-03-02T03:22:32.081Z,20.00
2019-03-02T03:25:20.286Z,17.40
2019-03-02T03:28:08.501Z,20.63
2019-03-02T03:30:56.720Z,18.80
2019-03-02T03:33:47.291Z,17.60
2019-03-02T03:36:35.521Z,15.67
2019-03-02T03:39:25.688Z,16.40
2019-03-02T03:42:22.625Z,18.90
2019-03-02T03:45:04.380Z,25.50
2019-03-02T03:47:52.768Z,18.63
2019-03-02T03:50:40.977Z,16.57
2019-03-02T03:53:26.389Z,20.87
2019-03-02T03:56:05.617Z,19.90
2019-03-02T03:58:46.427Z,16.90
2019-03-02T04:01:27.240Z,21.83
2019-03-02T04:04:08.647Z,18.23
2019-03-02T04:06:49.990Z,20.80
2019-03-02T04:09:30.927Z,22.03
2019-03-02T04:12:11.934Z,18.87
2019-03-02T04:14:56.822Z,17.33
2019-03-02T04:17:39.001Z,15.77
2019-03-02T04:20:18.813Z,23.60
2019-03-02T04:22:59.647Z,22.27
2019-03-02T04:25:40.707Z,21.40
2019-03-02T04:28:21.919Z,21.57
2019-03-02T04:31:04.756Z,23.33
2019-03-02T04:33:45.440Z,22.10
2019-03-02T04:36:26.358Z,17.70
2019-03-02T04:39:09.709Z,20.07
2019-03-02T04:41:50.055Z,19.17
2019-03-02T04:44:30.940Z,22.87
2019-03-02T04:47:11.479Z,21.00
2019-03-02T04:49:40.594Z,18.60
2019-03-02T04:52:29.088Z,21.37
2019-03-02T04:55:17.304Z,21.50
2019-03-02T04:58:08.586Z,24.70
2019-03-02T05:00:55.715Z,21.63
2019-03-02T05:03:44.011Z,19.30
2019-03-02T05:06:32.207Z,20.17
2019-03-02T05:09:20.703Z,24.20
2019-03-02T05:12:11.549Z,21.13
2019-03-02T05:14:59.091Z,23.80
2019-03-02T05:17:28.255Z,26.50
2019-03-02T05:20:16.452Z,23.30
2019-03-02T05:23:04.975Z,23.00
2019-03-02T05:25:54.591Z,24.73
2019-03-02T05:28:44.204Z,23.13
2019-03-02T05:31:33.030Z,28.73
2019-03-02T05:34:04.573Z,24.50
2019-03-02T05:36:33.271Z,24.13
2019-03-02T05:39:03.022Z,26.87
2019-03-02T05:41:35.684Z,22.57
2019-03-02T05:44:03.515Z,25.17
2019-03-02T05:46:32.959Z,25.10
2019-03-02T05:49:02.068Z,27.53
2019-03-02T05:51:31.167Z,22.00
2019-03-02T05:54:02.681Z,24.27
2019-03-02T05:56:31.392Z,30.10
2019-03-02T05:59:00.511Z,23.90
2019-03-02T06:01:30.249Z,27.10
2019-03-02T06:03:59.388Z,29.07
2019-03-02T06:06:28.795Z,29.40
2019-03-02T06:08:57.890Z,22.33
2019-03-02T06:11:27.429Z,27.77
2019-03-02T06:13:56.569Z,27.40
2019-03-02T06:16:25.670Z,26.93
2019-03-02T06:18:54.822Z,31.40
2019-03-02T06:21:23.944Z,31.50
2019-03-02T06:23:53.350Z,31.90
2019-03-02T06:26:22.435Z,32.13
2019-03-02T06:28:54.612Z,37.17
2019-03-02T06:31:22.394Z,32.37
2019-03-02T06:33:51.527Z,25.37
2019-03-02T06:36:20.627Z,29.40
2019-03-02T06:38:49.750Z,39.43
2019-03-02T06:41:18.857Z,29.73
2019-03-02T06:43:47.987Z,39.33
2019-03-02T06:46:19.845Z,38.60
2019-03-02T06:48:48.293Z,38.13
2019-03-02T06:51:17.428Z,43.23
2019-03-02T06:53:46.843Z,39.47
2019-03-02T06:56:16.296Z,42.90
2019-03-02T06:58:45.790Z,47.47
2019-03-02T07:01:15.275Z,45.30
2019-03-02T07:03:45.902Z,55.90
2019-03-02T07:06:16.621Z,46.60
2019-03-02T07:08:46.209Z,53.80
2019-03-02T07:11:15.416Z,45.93
2019-03-02T07:13:44.538Z,47.63
2019-03-02T07:16:16.507Z,50.77
2019-03-02T07:18:57.003Z,53.63
2019-03-02T07:21:26.172Z,50.43
2019-03-02T07:23:55.259Z,49.33
2019-03-02T07:26:24.801Z,48.23
2019-03-02T07:28:53.896Z,53.03
2019-03-02T07:31:23.578Z,47.20
2019-03-02T07:33:53.709Z,45.90
2019-03-02T07:36:22.832Z,48.03
2019-03-02T07:38:56.516Z,47.93
2019-03-02T07:41:23.827Z,54.17
2019-03-02T07:43:53.017Z,46.07
2019-03-02T07:46:22.422Z,68.03
2019-03-02T07:49:13.042Z,46.00
2019-03-02T07:51:42.380Z,58.20
2019-03-02T07:54:11.797Z,49.20
2019-03-02T07:56:40.983Z,55.87
2019-03-02T07:59:10.131Z,53.03
2019-03-02T08:01:39.298Z,44.93
2019-03-02T08:04:08.693Z,47.90
2019-03-02T08:06:37.812Z,57.20
2019-03-02T08:09:07.684Z,49.33
2019-03-02T08:11:36.844Z,52.37
2019-03-02T08:14:08.879Z,52.50
2019-03-02T08:16:37.741Z,45.37
2019-03-02T08:19:08.121Z,48.93
2019-03-02T08:21:37.368Z,52.47
2019-03-02T08:24:06.791Z,39.00
2019-03-02T08:26:36.983Z,39.53
2019-03-02T08:29:06.102Z,43.17
2019-03-02T08:31:35.271Z,44.47
2019-03-02T08:34:05.961Z,37.83
2019-03-02T08:36:36.105Z,48.30
2019-03-02T08:39:06.778Z,45.43
2019-03-02T08:41:37.923Z,44.10
2019-03-02T08:44:07.499Z,48.63
2019-03-02T08:46:36.657Z,49.03
2019-03-02T08:49:06.384Z,48.70
2019-03-02T08:51:36.285Z,40.83
2019-03-02T08:54:05.454Z,45.57
2019-03-02T08:56:35.005Z,42.93
2019-03-02T08:59:04.119Z,48.30
2019-03-02T09:01:33.581Z,45.63
2019-03-02T09:04:03.272Z,43.83
2019-03-02T09:06:34.759Z,46.40
2019-03-02T09:09:04.689Z,45.93
2019-03-02T09:11:34.708Z,43.23
2019-03-02T09:14:03.885Z,50.53
2019-03-02T09:16:33.277Z,45.47
2019-03-02T09:19:02.459Z,47.10
2019-03-02T09:21:32.503Z,46.47
2019-03-02T09:24:01.948Z,43.90
2019-03-02T09:26:31.071Z,45.63
2019-03-02T09:29:00.448Z,43.50
2019-03-02T09:31:29.877Z,45.33
2019-03-02T09:34:01.084Z,47.63
2019-03-02T09:36:31.165Z,47.87
2019-03-02T09:39:00.642Z,51.07
2019-03-02T09:41:29.755Z,50.77
2019-03-02T09:44:00.879Z,51.33
2019-03-02T09:46:30.346Z,46.93
2019-03-02T09:49:00.685Z,48.43
2019-03-02T09:51:30.036Z,48.03
2019-03-02T09:53:59.130Z,50.17
2019-03-02T09:56:28.479Z,51.83
2019-03-02T09:58:58.012Z,49.53
2019-03-02T10:01:28.438Z,56.83
2019-03-02T10:03:58.790Z,57.07
2019-03-02T10:06:28.379Z,52.37
2019-03-02T10:08:57.507Z,43.57
2019-03-02T10:11:26.620Z,52.87
2019-03-02T10:13:55.735Z,49.37
2019-03-02T10:16:25.471Z,57.10
2019-03-02T10:18:54.842Z,63.27
2019-03-02T10:21:23.956Z,50.73
2019-03-02T10:23:53.062Z,70.00
2019-03-02T10:26:22.270Z,49.37
2019-03-02T10:28:51.387Z,45.50
2019-03-02T10:31:20.535Z,52.93
2019-03-02T10:33:49.931Z,42.27
2019-03-02T10:36:19.063Z,55.80
2019-03-02T10:38:48.210Z,58.40
2019-03-02T10:41:20.414Z,50.87
2019-03-02T10:43:48.191Z,54.37
2019-03-02T10:46:17.436Z,52.67
2019-03-02T10:48:47.757Z,50.43
2019-03-02T10:51:17.235Z,54.93
2019-03-02T10:53:46.368Z,59.47
2019-03-02T10:56:15.748Z,50.60
2019-03-02T10:58:44.887Z,52.07
2019-03-02T11:01:14.379Z,53.13
2019-03-02T11:03:43.555Z,57.50
2019-03-02T11:06:22.295Z,49.93
2019-03-02T11:09:22.159Z,59.47
2019-03-02T11:12:02.911Z,53.37
2019-03-02T11:14:51.907Z,54.73
2019-03-02T11:17:49.562Z,52.73
2019-03-02T11:20:58.801Z,49.20
2019-03-02T11:23:54.727Z,55.07
2019-03-02T11:26:32.824Z,51.83
2019-03-02T11:29:25.731Z,54.10
2019-03-02T11:32:20.364Z,55.50
2019-03-02T11:35:02.083Z,49.67
2019-03-02T11:37:37.604Z,51.70
2019-03-02T11:40:12.158Z,54.07
2019-03-02T11:43:24.249Z,56.53
2019-03-02T11:46:16.477Z,54.90
2019-03-02T11:49:14.315Z,53.70
2019-03-02T11:52:12.710Z,60.17
2019-03-02T11:55:30.541Z,64.13
2019-03-02T11:58:23.205Z,51.40
2019-03-02T12:01:11.393Z,54.60
2019-03-02T12:04:18.647Z,59.97
2019-03-02T12:07:25.888Z,59.30
2019-03-02T12:10:33.429Z,49.23
2019-03-02T12:13:40.680Z,56.23
2019-03-02T12:16:47.938Z,53.17
2019-03-02T12:19:55.173Z,60.07
2019-03-02T12:23:02.673Z,54.87
2019-03-02T12:26:11.051Z,64.63
2019-03-02T12:29:19.181Z,56.10
2019-03-02T12:32:11.907Z,52.97
2019-03-02T12:35:19.168Z,55.90
2019-03-02T12:38:21.107Z,50.17
2019-03-02T12:41:28.345Z,48.67
2019-03-02T12:44:35.837Z,54.87
2019-03-02T12:47:43.336Z,56.50
2019-03-02T12:50:50.853Z,53.33
2019-03-02T12:54:00.904Z,54.07
2019-03-02T12:57:08.661Z,46.00
2019-03-02T13:00:16.467Z,46.90
2019-03-02T13:03:27.301Z,54.33
2019-03-02T13:06:35.884Z,51.83
2019-03-02T13:09:41.936Z,47.37
2019-03-02T13:12:49.183Z,53.03
2019-03-02T13:15:56.460Z,46.23
2019-03-02T13:19:03.679Z,49.90
2019-03-02T13:22:10.921Z,51.70
2019-03-02T13:24:59.259Z,45.30
2019-03-02T13:27:56.774Z,55.30
2019-03-02T13:30:58.668Z,51.20
2019-03-02T13:34:08.184Z,56.57
2019-03-02T13:37:17.010Z,53.70
2019-03-02T13:40:26.321Z,45.33
2019-03-02T13:43:33.304Z,38.50
2019-03-02T13:46:40.544Z,36.70
2019-03-02T13:49:47.791Z,42.57
2019-03-02T13:52:55.271Z,43.73
2019-03-02T13:55:52.195Z,35.40
2019-03-02T13:58:59.732Z,40.10
2019-03-02T14:02:07.233Z,33.27
2019-03-02T14:05:14.452Z,37.17
2019-03-02T14:08:21.700Z,34.47
2019-03-02T14:11:28.917Z,41.00
2019-03-02T14:14:36.424Z,37.17
2019-03-02T14:17:43.644Z,35.20
2019-03-02T14:20:51.169Z,33.10
2019-03-02T14:23:58.649Z,27.23
2019-03-02T14:26:53.944Z,29.70
2019-03-02T14:29:42.970Z,29.60
2019-03-02T14:32:44.443Z,30.57
2019-03-02T14:35:44.184Z,30.50
2019-03-02T14:38:44.511Z,31.87
2019-03-02T14:41:50.109Z,33.47
2019-03-02T14:44:49.997Z,32.47
2019-03-02T14:47:39.652Z,29.73
2019-03-02T14:50:40.313Z,36.87
2019-03-02T14:53:42.017Z,27.30
2019-03-02T14:56:29.434Z,25.20
2019-03-02T14:59:17.808Z,29.10
2019-03-02T15:02:25.325Z,23.77
2019-03-02T15:05:32.542Z,27.10
2019-03-02T15:08:40.059Z,21.60
2019-03-02T15:11:47.343Z,22.50
2019-03-02T15:14:54.616Z,23.33
2019-03-02T15:18:01.837Z,27.20
2019-03-02T15:21:11.510Z,28.30
2019-03-02T15:24:20.340Z,25.77
2019-03-02T15:27:27.316Z,28.53
2019-03-02T15:30:34.587Z,26.37
2019-03-02T15:33:41.810Z,28.73
2019-03-02T15:36:49.220Z,21.63
2019-03-02T15:39:56.523Z,26.53
2019-03-02T15:42:59.761Z,23.10
2019-03-02T15:45:59.994Z,22.33
2019-03-02T15:48:55.700Z,23.40
2019-03-02T15:51:55.675Z,20.90
2019-03-02T15:54:56.004Z,25.27
2019-03-02T15:57:55.583Z,16.97
2019-03-02T16:00:55.773Z,21.23
2019-03-02T16:03:43.012Z,19.83
2019-03-02T16:06:43.423Z,21.53
2019-03-02T16:09:43.053Z,17.20
2019-03-02T16:12:44.065Z,13.73
2019-03-02T16:15:45.307Z,19.60
2019-03-02T16:18:49.282Z,21.03
2019-03-02T16:21:53.185Z,14.43
2019-03-02T16:24:52.543Z,15.23
2019-03-02T16:27:52.779Z,13.87
2019-03-02T16:30:52.373Z,11.00
2019-03-02T16:33:51.824Z,9.70
2019-03-02T16:36:52.187Z,12.00
2019-03-02T16:39:52.356Z,18.73
2019-03-02T16:42:52.759Z,11.63
2019-03-02T16:45:52.240Z,12.40
2019-03-02T16:48:46.536Z,9.30
2019-03-02T16:51:34.521Z,11.77
2019-03-02T16:54:22.703Z,13.27
2019-03-02T16:57:30.636Z,13.77
2019-03-02T17:03:46.437Z,12.17
2019-03-02T17:06:49.564Z,11.30
2019-03-02T17:09:39.704Z,11.10
2019-03-02T17:12:39.632Z,9.23
2019-03-02T17:15:39.866Z,10.17
2019-03-02T17:18:43.005Z,10.80
2019-03-02T17:21:38.224Z,9.13
2019-03-02T17:24:37.787Z,10.10
2019-03-02T17:27:37.258Z,13.20
2019-03-02T17:33:34.328Z,4.57
2019-03-02T17:36:41.643Z,10.37
2019-03-02T17:39:41.643Z,11.50
2019-03-02T17:42:35.924Z,15.67
2019-03-02T17:45:36.638Z,9.43
2019-03-02T17:48:37.015Z,8.50
2019-03-02T17:51:27.668Z,5.07
2019-03-02T17:54:27.905Z,7.63
2019-03-02T17:57:27.935Z,10.80
2019-03-02T18:00:22.132Z,8.63
2019-03-02T18:03:28.625Z,5.50
2019-03-02T18:06:23.751Z,6.83
2019-03-02T18:09:24.082Z,8.30
2019-03-02T18:12:11.644Z,7.93
2019-03-02T18:14:55.036Z,13.30
2019-03-02T18:17:43.217Z,10.10
2019-03-02T18:20:12.334Z,9.80
2019-03-02T18:22:43.083Z,11.10
2019-03-02T18:25:13.397Z,7.93
2019-03-02T18:27:43.136Z,7.50
2019-03-02T18:30:15.439Z,9.40
2019-03-02T18:32:45.896Z,8.00
2019-03-02T18:35:15.634Z,10.23
2019-03-02T18:37:45.128Z,7.57
2019-03-02T18:40:14.945Z,9.40
2019-03-02T18:42:44.108Z,6.23
2019-03-02T18:45:13.935Z,9.47
2019-03-02T18:47:43.414Z,7.47
2019-03-02T18:50:33.311Z,9.57
2019-03-02T18:53:06.200Z,6.83
2019-03-02T18:55:35.866Z,7.53
2019-03-02T18:58:06.618Z,11.73
2019-03-02T19:00:38.698Z,8.93
2019-03-02T19:03:08.689Z,8.80
2019-03-02T19:05:37.964Z,8.10
2019-03-02T19:08:07.313Z,8.67
2019-03-02T19:10:39.709Z,7.40
2019-03-02T19:13:08.398Z,6.23
2019-03-02T19:15:38.921Z,6.47
2019-03-02T19:18:08.327Z,9.47
2019-03-02T19:20:37.891Z,5.80
2019-03-02T19:23:08.267Z,5.67
2019-03-02T19:25:37.411Z,6.00
2019-03-02T19:28:06.789Z,12.37
2019-03-02T19:30:36.864Z,11.10
2019-03-02T19:33:06.242Z,6.40
2019-03-02T19:35:35.439Z,7.70
2019-03-02T19:38:05.874Z,5.60
2019-03-02T19:40:35.574Z,4.30
2019-03-02T19:43:05.591Z,7.20
2019-03-02T19:45:35.036Z,9.77
2019-03-02T19:48:04.584Z,5.70
2019-03-02T19:50:34.141Z,4.40
2019-03-02T19:53:03.775Z,4.30
2019-03-02T19:55:32.925Z,3.73
2019-03-02T19:58:02.561Z,3.77
2019-03-02T20:00:32.337Z,3.73
2019-03-02T20:03:01.422Z,3.60
2019-03-02T20:05:31.128Z,3.50
2019-03-02T20:08:00.215Z,4.63
2019-03-02T20:10:29.803Z,6.03
2019-03-02T20:12:58.913Z,4.80
2019-03-02T20:15:28.171Z,3.70
2019-03-02T20:17:57.384Z,4.80
2019-03-02T20:20:26.891Z,3.90
2019-03-02T20:22:56.252Z,7.23
2019-03-02T20:25:25.428Z,4.97
2019-03-02T20:27:54.643Z,5.30
2019-03-02T20:30:23.744Z,4.17
2019-03-02T20:32:53.510Z,4.50
2019-03-02T20:35:22.975Z,8.27
2019-03-02T20:37:52.553Z,5.93
2019-03-02T20:40:22.164Z,3.77
2019-03-02T20:42:51.389Z,5.27
2019-03-02T20:45:20.915Z,4.10
2019-03-02T20:47:50.168Z,4.10
2019-03-02T20:50:19.263Z,4.03
2019-03-02T20:52:48.545Z,4.20
2019-03-02T20:55:17.947Z,5.60
2019-03-02T20:57:47.082Z,4.47
2019-03-02T21:00:19.656Z,4.63
2019-03-02T21:02:49.423Z,5.90
2019-03-02T21:05:18.527Z,4.33
2019-03-02T21:07:47.714Z,4.57
2019-03-02T21:10:17.960Z,4.13
2019-03-02T21:12:47.203Z,4.80
2019-03-02T21:15:19.144Z,6.13
2019-03-02T21:17:48.568Z,4.07
2019-03-02T21:20:20.063Z,3.93
2019-03-02T21:22:49.215Z,3.83
2019-03-02T21:25:18.319Z,4.20
2019-03-02T21:27:47.463Z,4.40
2019-03-02T21:30:16.828Z,5.40
2019-03-02T21:32:45.959Z,4.40
2019-03-02T21:35:15.629Z,6.30
2019-03-02T21:37:45.093Z,5.20
2019-03-02T21:40:19.198Z,4.50
2019-03-02T21:42:48.592Z,3.80
2019-03-02T21:45:19.392Z,3.30
2019-03-02T21:47:50.561Z,3.50
2019-03-02T21:50:24.299Z,3.93
2019-03-02T21:52:54.629Z,3.20
2019-03-02T21:55:25.813Z,3.37
2019-03-02T21:57:55.476Z,4.20
2019-03-02T22:00:26.328Z,3.97
2019-03-02T22:02:57.693Z,4.83
2019-03-02T22:05:27.959Z,4.47
2019-03-02T22:07:57.648Z,3.73
2019-03-02T22:10:35.384Z,4.77
2019-03-02T22:13:07.768Z,4.37
2019-03-02T22:15:37.132Z,4.33
2019-03-02T22:18:06.354Z,5.77
2019-03-02T22:20:36.136Z,5.43
2019-03-02T22:23:05.262Z,4.30
2019-03-02T22:25:36.119Z,4.57
2019-03-02T22:28:05.668Z,5.50
2019-03-02T22:30:34.804Z,10.07
2019-03-02T22:33:03.940Z,6.07
2019-03-02T22:35:34.157Z,5.40
2019-03-02T22:38:03.512Z,7.57
2019-03-02T22:40:32.673Z,7.50
2019-03-02T22:43:01.849Z,5.10
2019-03-02T22:45:31.317Z,7.37
2019-03-02T22:48:00.451Z,6.03
2019-03-02T22:50:30.379Z,7.77
2019-03-02T22:53:18.700Z,6.40
2019-03-02T22:55:47.878Z,6.50
2019-03-02T22:58:17.257Z,6.47
2019-03-02T23:01:18.571Z,5.90
2019-03-02T23:03:46.115Z,8.70
2019-03-02T23:06:15.287Z,8.57
2019-03-02T23:08:44.502Z,7.60
2019-03-02T23:11:13.951Z,7.20
2019-03-02T23:13:43.355Z,8.60
2019-03-02T23:16:12.456Z,10.30
2019-03-02T23:18:41.592Z,6.97
2019-03-02T23:21:11.051Z,7.70
2019-03-02T23:23:40.456Z,7.33
2019-03-02T23:26:09.855Z,9.97
2019-03-02T23:28:40.162Z,13.40
2019-03-02T23:31:09.461Z,10.37
2019-03-02T23:33:38.839Z,9.10
2019-03-02T23:36:07.939Z,9.60
2019-03-02T23:38:37.351Z,8.20
2019-03-02T23:41:08.231Z,13.73
2019-03-02T23:43:37.632Z,11.07
2019-03-02T23:46:06.760Z,11.07
2019-03-02T23:48:35.905Z,11.37
2019-03-02T23:51:05.261Z,12.33
2019-03-02T23:53:34.375Z,10.40
2019-03-02T23:56:03.482Z,8.50
2019-03-02T23:58:32.606Z,9.47
